Time;durP1;ratioP1;P1;durP2;ratioP2;P2;SDS_P1;SDS_P2;PMS_P1;PMS_P2;Temp;Humidity;BMP_temperature;BMP_pressure;BME280_temperature;BME280_humidity;BME280_pressure;Samples;Min_cycle;Max_cycle;Signal;HPM_P1;HPM_P2
2020/12/16 00:02:13;;;;;;;7.90;6.43;;;;;;;7.45;100.00;96726.88;5012128;28;20183;-73
2020/12/16 00:04:39;;;;;;;10.13;8.33;;;;;;;7.40;100.00;96732.72;5011841;28;20199;-73
2020/12/16 00:07:05;;;;;;;19.60;13.67;;;;;;;7.40;100.00;96734.53;5011366;28;20203;-73
2020/12/16 00:09:31;;;;;;;22.30;13.73;;;;;;;7.41;100.00;96736.16;5012033;28;20588;-72
2020/12/16 00:11:56;;;;;;;15.70;12.20;;;;;;;7.55;100.00;96736.88;5010318;28;20187;-73
2020/12/16 00:14:21;;;;;;;13.47;9.47;;;;;;;7.47;100.00;96738.69;5010850;28;20175;-74
2020/12/16 00:16:47;;;;;;;10.97;8.90;;;;;;;7.47;100.00;96728.25;5011116;28;20657;-73
2020/12/16 00:19:12;;;;;;;9.13;7.87;;;;;;;7.47;100.00;96725.66;5012066;28;20309;-74
2020/12/16 00:21:37;;;;;;;10.10;8.00;;;;;;;7.41;100.00;96726.50;5011324;28;20208;-73
2020/12/16 00:24:03;;;;;;;9.93;8.33;;;;;;;7.42;100.00;96729.91;5011758;28;20711;-73
2020/12/16 00:26:28;;;;;;;7.87;7.07;;;;;;;7.45;100.00;96729.50;5011591;28;20183;-73
2020/12/16 00:28:54;;;;;;;9.40;7.30;;;;;;;7.37;100.00;96724.50;5010964;28;20191;-73
2020/12/16 00:31:19;;;;;;;7.87;6.93;;;;;;;7.42;100.00;96722.06;4986315;28;20194;-74
2020/12/16 00:33:44;;;;;;;10.30;7.60;;;;;;;7.50;100.00;96724.47;5010977;28;20186;-73
2020/12/16 00:36:10;;;;;;;8.63;7.73;;;;;;;7.68;100.00;96715.94;5012471;28;20194;-73
2020/12/16 00:38:35;;;;;;;8.10;7.23;;;;;;;7.49;100.00;96723.66;5010518;28;20194;-73
2020/12/16 00:41:01;;;;;;;9.47;7.77;;;;;;;7.45;100.00;96721.69;5012020;28;20191;-74
2020/12/16 00:43:26;;;;;;;9.33;7.50;;;;;;;7.44;100.00;96723.47;5011638;28;20183;-73
2020/12/16 00:45:52;;;;;;;10.23;8.17;;;;;;;7.37;100.00;96727.13;5011114;28;20175;-74
2020/12/16 00:48:17;;;;;;;10.90;8.40;;;;;;;7.33;100.00;96728.53;5012042;28;20206;-73
2020/12/16 00:50:43;;;;;;;9.83;7.63;;;;;;;7.22;100.00;96729.19;5010262;28;20652;-72
2020/12/16 00:53:08;;;;;;;9.30;7.97;;;;;;;7.23;100.00;96729.00;5011594;28;20678;-72
2020/12/16 00:55:34;;;;;;;9.53;7.23;;;;;;;7.27;100.00;96732.78;5009565;28;20274;-72
2020/12/16 00:57:59;;;;;;;9.20;7.70;;;;;;;7.29;100.00;96733.38;5017955;28;20241;-72
2020/12/16 01:00:24;;;;;;;12.03;8.00;;;;;;;7.29;100.00;96733.38;5011371;28;20179;-72
2020/12/16 01:02:51;;;;;;;14.30;8.03;;;;;;;7.16;100.00;96736.03;5010617;28;20191;-72
2020/12/16 01:05:19;;;;;;;10.80;8.23;;;;;;;7.27;100.00;96738.00;5011554;28;20698;-72
2020/12/16 01:07:44;;;;;;;8.30;7.50;;;;;;;7.25;100.00;96742.59;5013301;28;20207;-71
2020/12/16 01:10:11;;;;;;;10.73;8.10;;;;;;;7.31;100.00;96749.59;5013892;28;20179;-72
2020/12/16 01:12:42;;;;;;;9.73;7.90;;;;;;;7.29;100.00;96753.44;5008671;28;20324;-72
2020/12/16 01:15:11;;;;;;;8.33;7.37;;;;;;;7.30;100.00;96760.25;5022622;28;20457;-72
2020/12/16 01:17:40;;;;;;;7.93;7.13;;;;;;;7.36;100.00;96762.00;5016974;28;20186;-72
2020/12/16 01:20:11;;;;;;;8.57;7.50;;;;;;;7.34;100.00;96774.47;5018010;28;20317;-72
2020/12/16 01:22:40;;;;;;;8.77;7.83;;;;;;;7.42;100.00;96769.81;5016265;28;20688;-71
2020/12/16 01:25:06;;;;;;;8.20;7.40;;;;;;;7.42;100.00;96777.63;5016978;28;20179;-71
2020/12/16 01:27:32;;;;;;;8.97;7.47;;;;;;;7.43;100.00;96775.81;5017297;28;20245;-72
2020/12/16 01:29:58;;;;;;;10.10;7.63;;;;;;;7.52;100.00;96772.78;5018103;28;20191;-73
2020/12/16 01:32:23;;;;;;;8.03;7.23;;;;;;;7.69;100.00;96773.09;5017835;28;20261;-73
2020/12/16 01:34:49;;;;;;;8.70;6.90;;;;;;;7.59;100.00;96775.34;5017002;28;20258;-73
2020/12/16 01:37:14;;;;;;;9.07;7.00;;;;;;;7.57;100.00;96776.59;5017369;28;20186;-72
2020/12/16 01:39:39;;;;;;;8.93;7.00;;;;;;;7.61;100.00;96777.78;5016816;28;20183;-72
2020/12/16 01:42:05;;;;;;;9.80;7.10;;;;;;;7.64;100.00;96783.34;5017589;28;20191;-72
2020/12/16 01:44:30;;;;;;;7.47;6.73;;;;;;;7.80;99.62;96779.50;4989966;28;20650;-72
2020/12/16 01:47:00;;;;;;;7.80;7.00;;;;;;;7.72;99.87;96783.13;5006759;28;20199;-72
2020/12/16 01:49:26;;;;;;;7.77;6.63;;;;;;;7.71;100.00;96772.91;5017800;28;20211;-72
2020/12/16 01:52:01;;;;;;;7.60;6.77;;;;;;;7.73;99.56;96779.53;5016843;28;20774;-72
2020/12/16 01:54:29;;;;;;;8.90;7.00;;;;;;;7.74;99.57;96775.91;5017644;28;20526;-72
2020/12/16 01:56:56;;;;;;;7.60;6.23;;;;;;;7.71;99.89;96768.47;5016954;28;21023;-72
2020/12/16 01:59:22;;;;;;;7.90;6.50;;;;;;;7.84;99.44;96768.41;5017371;28;20187;-71
2020/12/16 02:01:54;;;;;;;7.27;6.10;;;;;;;7.88;99.70;96764.38;5016744;28;20246;-72
2020/12/16 02:04:24;;;;;;;7.00;6.27;;;;;;;7.90;98.94;96764.19;5017305;28;20184;-71
2020/12/16 02:06:51;;;;;;;6.20;5.60;;;;;;;7.91;99.41;96763.94;5019708;28;20205;-71
2020/12/16 02:09:19;;;;;;;5.90;5.30;;;;;;;7.89;99.56;96773.81;5017815;28;20242;-71
2020/12/16 02:11:44;;;;;;;5.60;5.00;;;;;;;7.98;98.56;96766.53;5015773;28;20670;-71
2020/12/16 02:14:10;;;;;;;6.23;5.63;;;;;;;8.04;98.39;96763.06;5017578;28;20183;-72
2020/12/16 02:16:37;;;;;;;6.13;5.50;;;;;;;8.09;98.14;96762.44;5016590;28;20690;-71
2020/12/16 02:19:07;;;;;;;6.67;5.97;;;;;;;7.98;98.40;96758.69;5016949;28;20187;-71
2020/12/16 02:21:34;;;;;;;6.60;5.90;;;;;;;8.02;97.72;96764.31;5016924;28;20787;-71
2020/12/16 02:24:05;;;;;;;6.90;6.20;;;;;;;8.12;97.03;96755.00;5013464;28;20227;-72
2020/12/16 02:26:32;;;;;;;7.57;6.23;;;;;;;8.19;96.50;96762.78;5014842;28;20179;-72
2020/12/16 02:28:58;;;;;;;7.17;6.47;;;;;;;7.95;97.67;96759.13;5013378;28;20245;-72
2020/12/16 02:31:25;;;;;;;6.80;6.10;;;;;;;7.79;98.68;96762.22;5014172;28;20652;-72
2020/12/16 02:33:51;;;;;;;7.13;6.00;;;;;;;7.81;98.54;96765.41;5013196;28;20225;-73
2020/12/16 02:36:16;;;;;;;7.03;6.33;;;;;;;7.79;98.51;96763.03;5014438;28;20187;-72
2020/12/16 02:38:46;;;;;;;7.10;6.40;;;;;;;7.83;98.55;96764.22;5026744;28;20214;-73
2020/12/16 02:41:12;;;;;;;7.43;6.37;;;;;;;7.79;98.64;96757.81;5014037;28;20191;-72
2020/12/16 02:43:37;;;;;;;8.20;6.77;;;;;;;7.83;98.83;96768.63;5012845;28;20663;-72
2020/12/16 02:46:03;;;;;;;6.43;5.83;;;;;;;7.77;98.77;96767.66;5014283;28;20210;-72
2020/12/16 02:48:28;;;;;;;7.40;6.70;;;;;;;7.89;98.46;96765.97;5018338;28;20289;-72
2020/12/16 02:50:54;;;;;;;7.17;6.47;;;;;;;7.79;98.38;96773.47;5012879;28;20242;-73
2020/12/16 02:53:20;;;;;;;7.43;6.70;;;;;;;7.80;98.46;96772.44;5013611;28;20188;-72
2020/12/16 02:55:45;;;;;;;7.60;6.80;;;;;;;7.79;98.54;96770.88;5012643;28;20226;-74
2020/12/16 02:58:11;;;;;;;7.70;6.67;;;;;;;7.84;98.34;96776.25;5013519;28;20567;-73
2020/12/16 03:00:36;;;;;;;7.27;6.57;;;;;;;7.97;98.07;96766.75;5013148;28;20183;-71
2020/12/16 03:03:01;;;;;;;7.70;7.00;;;;;;;7.99;97.84;96764.72;5013499;28;20633;-73
2020/12/16 03:05:27;;;;;;;7.37;6.77;;;;;;;7.94;98.25;96767.94;5013232;28;20183;-72
2020/12/16 03:07:52;;;;;;;7.83;7.03;;;;;;;7.92;97.99;96765.53;5023888;28;20210;-72
2020/12/16 03:10:17;;;;;;;8.03;7.27;;;;;;;8.09;95.87;96762.44;5013837;28;20187;-72
2020/12/16 03:12:43;;;;;;;7.97;7.17;;;;;;;7.86;97.38;96769.00;5012395;28;20203;-73
2020/12/16 03:15:08;;;;;;;8.20;7.40;;;;;;;7.93;96.62;96764.53;5013199;28;20207;-73
2020/12/16 03:17:34;;;;;;;8.47;7.57;;;;;;;7.77;97.37;96761.63;5012671;28;20183;-72
2020/12/16 03:19:59;;;;;;;8.73;7.13;;;;;;;7.64;97.44;96772.91;5012087;28;20184;-73
2020/12/16 03:22:24;;;;;;;8.60;7.70;;;;;;;7.68;97.57;96774.13;5003714;28;20266;-71
2020/12/16 03:24:50;;;;;;;8.40;7.60;;;;;;;7.66;98.06;96775.34;5012609;28;20224;-72
2020/12/16 03:27:15;;;;;;;9.33;7.63;;;;;;;7.60;98.11;96771.75;5013143;28;20346;-72
2020/12/16 03:29:41;;;;;;;9.33;7.30;;;;;;;7.64;97.85;96783.34;5012013;28;20253;-72
2020/12/16 03:32:06;;;;;;;8.77;6.87;;;;;;;7.65;97.84;96784.16;5013027;28;20190;-72
2020/12/16 03:34:31;;;;;;;8.93;7.47;;;;;;;7.64;97.84;96778.13;5011182;28;20180;-72
2020/12/16 03:36:57;;;;;;;7.57;6.87;;;;;;;7.64;98.28;96772.91;5012202;28;20183;-72
2020/12/16 03:39:22;;;;;;;9.30;6.97;;;;;;;7.71;97.98;96773.69;5022207;28;20643;-72
2020/12/16 03:41:50;;;;;;;9.10;6.97;;;;;;;7.65;98.14;96773.72;5011758;28;20202;-72
2020/12/16 03:44:16;;;;;;;7.00;6.40;;;;;;;7.70;97.70;96774.69;5011907;28;20187;-72
2020/12/16 03:46:41;;;;;;;8.87;7.20;;;;;;;7.58;98.41;96780.81;5011611;28;20717;-71
2020/12/16 03:49:06;;;;;;;7.33;6.40;;;;;;;7.67;97.98;96782.16;5003578;28;20179;-71
2020/12/16 03:51:32;;;;;;;7.83;6.93;;;;;;;7.64;98.30;96777.34;5012063;28;20187;-73
2020/12/16 03:53:57;;;;;;;7.53;6.83;;;;;;;7.59;98.62;96777.16;5011480;28;20691;-72
2020/12/16 03:56:23;;;;;;;6.70;6.10;;;;;;;7.73;98.22;96783.94;5003456;28;20274;-73
2020/12/16 03:58:48;;;;;;;7.77;6.57;;;;;;;7.64;97.71;96782.56;5011486;28;20539;-72
2020/12/16 04:01:17;;;;;;;7.13;6.47;;;;;;;7.64;97.83;96787.78;5011074;28;20199;-73
2020/12/16 04:03:43;;;;;;;7.30;6.60;;;;;;;7.56;98.39;96778.41;5010986;28;20199;-73
2020/12/16 04:06:10;;;;;;;6.93;6.30;;;;;;;7.51;98.63;96779.03;5012530;28;20237;-73
2020/12/16 04:08:36;;;;;;;7.20;6.53;;;;;;;7.57;97.78;96766.97;5011614;28;20187;-72
2020/12/16 04:11:08;;;;;;;7.93;7.13;;;;;;;7.60;97.33;96769.13;5011656;28;20191;-73
2020/12/16 04:13:33;;;;;;;7.13;6.50;;;;;;;7.48;97.86;96773.41;5012019;28;20175;-73
2020/12/16 04:15:59;;;;;;;6.50;5.90;;;;;;;7.51;97.14;96776.41;5010486;28;20198;-73
2020/12/16 04:18:24;;;;;;;7.27;6.50;;;;;;;7.51;96.72;96779.03;5011582;28;20648;-72
2020/12/16 04:20:49;;;;;;;7.43;6.70;;;;;;;7.55;96.07;96781.19;5010843;28;20542;-73
2020/12/16 04:23:15;;;;;;;7.50;6.80;;;;;;;7.44;95.84;96775.63;5011953;28;20215;-74
2020/12/16 04:25:40;;;;;;;7.07;6.30;;;;;;;7.60;93.87;96776.97;5011348;28;20686;-72
2020/12/16 04:28:06;;;;;;;6.80;6.20;;;;;;;7.25;95.58;96779.09;5012449;28;20198;-72
2020/12/16 04:30:31;;;;;;;7.07;6.40;;;;;;;7.13;96.41;96767.72;5020394;28;20207;-73
2020/12/16 04:32:59;;;;;;;6.80;6.20;;;;;;;7.16;95.06;96766.50;5017963;28;20299;-72
2020/12/16 04:35:25;;;;;;;7.00;6.30;;;;;;;7.10;95.83;96773.34;5011893;28;20255;-73
2020/12/16 04:37:52;;;;;;;6.83;6.23;;;;;;;6.95;96.57;96775.38;5010937;28;20636;-72
2020/12/16 04:40:18;;;;;;;6.90;6.30;;;;;;;6.94;96.26;96776.38;5011957;28;20191;-72
2020/12/16 04:42:43;;;;;;;6.77;6.17;;;;;;;6.81;96.46;96777.19;5010370;28;20636;-74
2020/12/16 04:45:09;;;;;;;7.00;6.40;;;;;;;6.70;96.77;96775.22;5011482;28;20542;-72
2020/12/16 04:47:35;;;;;;;5.97;5.47;;;;;;;6.60;96.40;96783.44;5011402;28;20195;-71
2020/12/16 04:50:05;;;;;;;5.97;5.47;;;;;;;6.62;96.00;96786.66;5011668;28;20249;-71
2020/12/16 04:52:32;;;;;;;6.27;5.70;;;;;;;6.42;96.44;96787.63;5011499;28;20195;-72
2020/12/16 04:54:58;;;;;;;8.73;6.57;;;;;;;6.47;95.87;96793.84;5010948;28;20175;-73
2020/12/16 04:57:24;;;;;;;7.30;6.60;;;;;;;6.53;95.80;96789.63;5011817;28;20266;-73
2020/12/16 04:59:56;;;;;;;6.33;5.73;;;;;;;6.72;92.71;96798.44;5010569;28;20262;-73
2020/12/16 05:02:22;;;;;;;10.33;5.77;;;;;;;6.37;94.31;96790.84;5011458;28;20187;-72
2020/12/16 05:04:47;;;;;;;12.03;5.63;;;;;;;6.43;94.04;96791.84;5010704;28;20186;-72
2020/12/16 05:07:29;;;;;;;14.30;5.77;;;;;;;6.31;94.35;96801.25;5013855;28;20195;-74
2020/12/16 05:09:55;;;;;;;15.43;6.43;;;;;;;6.30;94.26;96795.25;5010563;28;20210;-72
2020/12/16 05:12:21;;;;;;;7.20;6.27;;;;;;;6.09;95.47;96798.03;5011043;28;20237;-73
2020/12/16 05:14:47;;;;;;;31.67;6.93;;;;;;;6.19;94.38;96791.44;5008357;28;20241;-72
2020/12/16 05:17:12;;;;;;;67.17;7.43;;;;;;;6.25;93.73;96797.63;5011851;28;20183;-72
2020/12/16 05:19:44;;;;;;;43.93;9.33;;;;;;;6.10;93.80;96792.63;5010579;28;20547;-72
2020/12/16 05:22:24;;;;;;;125.53;9.10;;;;;;;6.02;94.17;96799.81;5015924;28;20187;-73
2020/12/16 05:24:52;;;;;;;36.73;6.83;;;;;;;5.79;95.79;96806.16;5009087;28;20265;-72
2020/12/16 05:27:31;;;;;;;43.70;6.73;;;;;;;5.76;96.30;96798.72;5011419;28;20214;-73
2020/12/16 05:30:04;;;;;;;36.83;7.10;;;;;;;5.70;96.87;96803.91;5006693;28;20409;-72
2020/12/16 05:32:36;;;;;;;33.27;7.30;;;;;;;5.68;97.59;96804.09;5011205;28;20262;-72
2020/12/16 05:35:19;;;;;;;8.07;6.27;;;;;;;5.77;97.46;96796.91;5010807;28;20262;-73
2020/12/16 05:37:45;;;;;;;9.13;6.07;;;;;;;5.95;96.26;96792.00;5001417;28;20191;-72
2020/12/16 05:40:15;;;;;;;6.93;5.50;;;;;;;6.07;96.03;96798.25;5010938;28;20183;-72
2020/12/16 05:42:41;;;;;;;7.27;6.33;;;;;;;6.09;95.81;96805.81;5010440;28;20280;-72
2020/12/16 05:45:18;;;;;;;6.40;5.80;;;;;;;6.16;96.79;96806.66;5011535;28;20599;-73
2020/12/16 05:47:57;;;;;;;6.17;5.57;;;;;;;6.13;95.87;96807.81;5010296;28;20293;-72
2020/12/16 05:50:23;;;;;;;6.47;5.87;;;;;;;6.17;95.43;96816.06;5010850;28;20191;-72
2020/12/16 05:52:49;;;;;;;5.80;5.20;;;;;;;6.23;95.17;96810.88;5009817;28;20251;-72
2020/12/16 05:55:26;;;;;;;5.93;5.40;;;;;;;6.26;94.68;96820.88;5010890;28;20188;-73
2020/12/16 05:58:12;;;;;;;5.93;5.43;;;;;;;6.15;94.95;96816.25;5006031;28;20179;-72
2020/12/16 06:00:52;;;;;;;6.07;5.47;;;;;;;6.07;95.38;96821.66;5013707;28;20206;-71
2020/12/16 06:03:21;;;;;;;5.70;5.10;;;;;;;6.06;95.15;96825.25;5014568;28;20175;-72
2020/12/16 06:05:52;;;;;;;6.00;5.40;;;;;;;6.14;95.35;96826.84;5013584;28;20183;-73
2020/12/16 06:08:19;;;;;;;5.87;5.30;;;;;;;6.32;94.29;96826.28;5014435;28;20203;-72
2020/12/16 06:10:46;;;;;;;6.63;5.50;;;;;;;6.29;94.70;96831.91;5013587;28;20199;-73
2020/12/16 06:13:13;;;;;;;6.50;5.90;;;;;;;6.30;94.76;96830.91;5013999;28;20679;-73
2020/12/16 06:16:02;;;;;;;7.20;6.13;;;;;;;6.34;94.54;96837.31;5014031;28;20198;-72
2020/12/16 06:18:30;;;;;;;6.17;5.63;;;;;;;6.39;93.81;96835.72;5014224;28;20687;-72
2020/12/16 06:20:56;;;;;;;6.13;5.53;;;;;;;6.17;93.90;96837.69;5011738;28;20180;-71
2020/12/16 06:23:37;;;;;;;5.70;5.20;;;;;;;5.89;95.29;96844.00;5011827;28;20357;-69
2020/12/16 06:26:05;;;;;;;6.43;5.77;;;;;;;5.98;94.79;96842.81;5007198;28;20173;-70
2020/12/16 06:28:31;;;;;;;5.87;5.27;;;;;;;5.97;94.56;96844.63;5007124;28;20195;-71
2020/12/16 06:31:22;;;;;;;6.20;5.60;;;;;;;6.11;93.98;96850.66;5007227;28;20804;-71
2020/12/16 06:33:57;;;;;;;6.20;5.60;;;;;;;6.33;91.94;96854.72;5013525;28;20176;-71
2020/12/16 06:36:31;;;;;;;6.70;5.87;;;;;;;6.18;92.90;96856.69;5013779;28;20175;-75
2020/12/16 06:38:57;;;;;;;6.17;5.67;;;;;;;6.10;94.09;96854.25;4998501;28;20175;-72
2020/12/16 06:41:45;;;;;;;7.50;6.23;;;;;;;6.09;94.32;96857.84;5013948;28;20656;-72
2020/12/16 06:44:11;;;;;;;6.97;6.27;;;;;;;6.15;94.32;96862.28;5013708;28;20183;-70
2020/12/16 06:46:42;;;;;;;7.27;6.57;;;;;;;6.25;93.78;96860.09;5013259;28;20187;-72
2020/12/16 06:49:24;;;;;;;7.90;7.10;;;;;;;6.32;93.22;96857.50;5013823;28;20179;-70
2020/12/16 06:51:53;;;;;;;7.43;6.73;;;;;;;6.37;91.81;96863.72;5012520;28;20215;-72
2020/12/16 06:54:20;;;;;;;8.23;6.53;;;;;;;6.17;93.45;96861.09;5013984;28;20307;-73
2020/12/16 06:56:47;;;;;;;7.20;6.50;;;;;;;6.29;92.50;96861.31;5012451;28;20187;-73
2020/12/16 06:59:32;;;;;;;7.10;6.33;;;;;;;6.39;92.46;96873.94;5013597;28;20187;-74
2020/12/16 07:02:22;;;;;;;8.53;6.43;;;;;;;6.36;92.29;96863.91;5009891;28;20795;-75
2020/12/16 07:04:48;;;;;;;6.73;5.50;;;;;;;6.33;91.51;96872.13;4994733;28;20224;-75
2020/12/16 07:07:39;;;;;;;6.43;5.73;;;;;;;6.25;91.98;96868.72;5013068;28;20199;-74
2020/12/16 07:10:33;;;;;;;6.60;5.93;;;;;;;6.16;92.74;96866.50;5013074;28;20590;-70
2020/12/16 07:13:20;;;;;;;6.20;5.43;;;;;;;6.09;92.80;96865.66;4997905;28;20191;-73
2020/12/16 07:15:59;;;;;;;5.67;5.13;;;;;;;6.07;92.85;96872.88;5013067;28;20209;-73
2020/12/16 07:18:27;;;;;;;6.57;5.97;;;;;;;6.13;92.81;96870.28;5012589;28;20176;-73
2020/12/16 07:21:20;;;;;;;5.77;5.27;;;;;;;6.02;93.47;96881.25;5011529;28;20181;-73
2020/12/16 07:23:58;;;;;;;6.60;6.00;;;;;;;6.45;91.59;96884.38;5006841;28;20237;-73
2020/12/16 07:26:33;;;;;;;6.57;5.87;;;;;;;6.23;93.09;96878.53;5002212;28;20191;-73
2020/12/16 07:29:00;;;;;;;5.90;5.30;;;;;;;6.11;93.32;96887.09;5007813;28;20205;-74
2020/12/16 07:31:26;;;;;;;6.20;5.60;;;;;;;6.09;93.90;96889.88;5001580;28;20199;-74
2020/12/16 07:33:52;;;;;;;6.10;5.50;;;;;;;6.09;93.61;96892.50;5012267;28;20685;-73
2020/12/16 07:36:19;;;;;;;6.03;5.43;;;;;;;6.18;93.21;96883.53;5001419;28;20215;-73
2020/12/16 07:38:53;;;;;;;6.77;5.60;;;;;;;6.29;92.86;96883.94;5012098;28;20406;-73
2020/12/16 07:41:29;;;;;;;6.27;5.70;;;;;;;6.25;93.69;96886.13;5012714;28;20663;-73
2020/12/16 07:44:01;;;;;;;5.67;5.17;;;;;;;6.22;94.26;96889.94;5011553;28;20675;-73
2020/12/16 07:46:27;;;;;;;5.63;5.13;;;;;;;6.28;94.12;96887.53;5012825;28;20183;-75
2020/12/16 07:48:52;;;;;;;5.90;5.40;;;;;;;6.38;93.80;96893.97;5002379;28;20207;-74
2020/12/16 07:51:21;;;;;;;6.17;5.13;;;;;;;6.42;93.83;96902.19;5012320;28;20536;-75
2020/12/16 07:53:48;;;;;;;5.73;4.83;;;;;;;6.48;94.04;96896.19;5012092;28;20290;-76
2020/12/16 07:56:16;;;;;;;6.03;4.93;;;;;;;6.41;93.70;96906.56;5012267;28;20274;-71
2020/12/16 07:58:41;;;;;;;5.50;5.00;;;;;;;6.45;93.73;96914.81;5011535;28;20643;-75
2020/12/16 08:01:11;;;;;;;5.23;4.73;;;;;;;6.44;93.96;96915.81;5012949;28;20202;-76
2020/12/16 08:03:38;;;;;;;8.40;5.17;;;;;;;6.52;92.75;96916.41;5011956;28;20311;-71
2020/12/16 08:06:04;;;;;;;5.90;5.30;;;;;;;6.43;93.22;96919.41;5012243;28;20190;-76
2020/12/16 08:08:30;;;;;;;5.73;5.23;;;;;;;6.52;92.09;96919.03;5020259;28;20241;-75
2020/12/16 08:10:56;;;;;;;6.17;5.57;;;;;;;6.46;92.37;96919.03;5011174;28;20405;-75
2020/12/16 08:13:23;;;;;;;6.07;5.47;;;;;;;6.52;92.09;96916.41;5012281;28;20238;-75
2020/12/16 08:15:50;;;;;;;6.00;5.40;;;;;;;6.69;90.80;96917.66;5011043;28;20194;-76
2020/12/16 08:18:19;;;;;;;8.17;6.40;;;;;;;6.60;91.12;96921.44;5003973;28;20187;-74
2020/12/16 08:20:45;;;;;;;7.53;5.80;;;;;;;6.58;91.59;96918.22;5002819;28;20190;-76
2020/12/16 08:23:13;;;;;;;8.13;6.37;;;;;;;6.55;91.88;96920.44;5011615;28;20234;-75
2020/12/16 08:25:39;;;;;;;7.57;6.73;;;;;;;6.54;91.92;96916.22;5024188;28;20196;-73
2020/12/16 08:28:05;;;;;;;7.57;6.77;;;;;;;6.70;90.48;96908.03;5011417;28;20585;-74
2020/12/16 08:30:32;;;;;;;7.40;5.93;;;;;;;6.58;91.15;96917.44;5011379;28;20199;-75
2020/12/16 08:33:13;;;;;;;6.50;5.80;;;;;;;6.60;92.11;96931.88;5011290;28;20332;-75
2020/12/16 08:35:41;;;;;;;6.60;6.00;;;;;;;6.65;91.85;96923.47;5011703;28;20210;-73
2020/12/16 08:38:11;;;;;;;7.33;6.33;;;;;;;6.82;90.71;96921.28;5012436;28;20218;-77
2020/12/16 08:40:39;;;;;;;7.57;6.60;;;;;;;6.70;91.13;96926.25;5011435;28;20195;-73
2020/12/16 08:43:24;;;;;;;7.27;6.37;;;;;;;6.94;90.17;96909.25;5011924;28;20210;-75
2020/12/16 08:46:02;;;;;;;6.80;6.10;;;;;;;7.02;89.88;96909.84;5008812;28;20187;-75
2020/12/16 08:48:28;;;;;;;8.07;6.07;;;;;;;6.97;89.96;96909.66;5011156;28;20203;-76
2020/12/16 08:51:23;;;;;;;6.40;5.80;;;;;;;7.02;90.11;96909.06;5009387;28;20194;-74
2020/12/16 08:53:51;;;;;;;6.80;5.57;;;;;;;7.00;90.23;96913.66;5005213;28;20202;-73
2020/12/16 08:56:33;;;;;;;7.63;6.43;;;;;;;7.05;90.16;96913.88;5010963;28;20682;-74
2020/12/16 08:59:03;;;;;;;6.93;5.80;;;;;;;6.95;90.82;96921.28;5010809;28;20257;-74
2020/12/16 09:01:29;;;;;;;6.83;6.10;;;;;;;7.12;89.92;96921.69;5009639;28;20690;-76
2020/12/16 09:03:55;;;;;;;5.93;5.43;;;;;;;7.05;90.42;96926.91;5010582;28;20184;-76
2020/12/16 09:06:20;;;;;;;6.40;5.80;;;;;;;7.10;90.40;96921.88;4994961;28;20651;-75
2020/12/16 09:08:47;;;;;;;6.30;5.70;;;;;;;7.23;90.59;96919.28;5017448;28;20214;-75
2020/12/16 09:11:13;;;;;;;6.10;5.47;;;;;;;7.46;90.11;96919.66;5011365;28;20535;-76
2020/12/16 09:13:38;;;;;;;6.47;5.87;;;;;;;7.82;88.27;96931.41;5009553;28;20194;-74
2020/12/16 09:16:04;;;;;;;6.63;6.03;;;;;;;7.92;88.05;96934.38;5011792;28;20636;-76
2020/12/16 09:18:32;;;;;;;6.03;5.43;;;;;;;8.17;87.20;96927.47;5011394;28;20515;-76
2020/12/16 09:20:58;;;;;;;5.87;5.27;;;;;;;8.24;86.76;96927.44;5010345;28;20318;-76
2020/12/16 09:23:28;;;;;;;4.83;4.30;;;;;;;8.26;86.14;96928.00;5010915;28;20227;-76
2020/12/16 09:25:57;;;;;;;4.90;4.50;;;;;;;8.24;86.88;96937.88;5009550;28;20249;-76
2020/12/16 09:28:37;;;;;;;6.33;4.60;;;;;;;8.15;87.15;96941.72;5011443;28;20286;-76
2020/12/16 09:31:17;;;;;;;5.07;4.57;;;;;;;8.32;86.00;96948.09;5011081;28;20185;-76
2020/12/16 09:33:59;;;;;;;5.00;4.50;;;;;;;8.36;85.74;96938.06;5013566;28;20198;-76
2020/12/16 09:36:28;;;;;;;5.00;4.40;;;;;;;8.37;85.54;96934.41;5014933;28;20269;-76
2020/12/16 09:38:58;;;;;;;5.77;5.17;;;;;;;8.45;85.61;96934.19;5012868;28;20183;-76
2020/12/16 09:41:24;;;;;;;5.33;4.83;;;;;;;8.32;86.13;96937.66;5014602;28;20659;-76
2020/12/16 09:43:50;;;;;;;5.17;4.63;;;;;;;8.53;85.83;96932.13;5014196;28;20262;-76
2020/12/16 09:46:21;;;;;;;6.93;5.40;;;;;;;8.60;85.93;96930.28;5014902;28;20722;-76
2020/12/16 09:48:48;;;;;;;6.00;5.40;;;;;;;8.67;85.05;96932.84;5013788;28;20223;-76
2020/12/16 09:51:19;;;;;;;6.40;5.33;;;;;;;8.75;84.81;96940.44;5014380;28;20179;-76
2020/12/16 09:53:45;;;;;;;6.50;5.60;;;;;;;8.75;85.11;96936.00;5021522;28;20710;-76
2020/12/16 09:56:27;;;;;;;6.30;5.70;;;;;;;8.74;84.59;96925.78;5014114;28;20175;-76
2020/12/16 09:58:54;;;;;;;5.67;5.13;;;;;;;8.72;85.15;96928.59;5013070;28;20539;-77
2020/12/16 10:01:19;;;;;;;6.23;5.47;;;;;;;8.88;84.12;96926.47;5003506;28;20652;-75
2020/12/16 10:03:47;;;;;;;6.00;5.40;;;;;;;8.85;84.66;96914.66;5007373;28;20187;-77
2020/12/16 10:06:14;;;;;;;5.87;5.27;;;;;;;8.61;85.33;96926.66;5015182;28;20667;-77
2020/12/16 10:08:40;;;;;;;6.40;5.23;;;;;;;8.58;85.84;96918.44;5012647;28;20232;-74
2020/12/16 10:11:15;;;;;;;6.80;6.20;;;;;;;8.60;86.75;96922.44;5014574;28;20199;-77
2020/12/16 10:13:43;;;;;;;6.67;5.90;;;;;;;8.65;86.03;96917.38;5012312;28;20644;-78
2020/12/16 10:16:09;;;;;;;6.90;5.90;;;;;;;8.64;86.72;96918.38;5014261;28;20191;-77
2020/12/16 10:18:37;;;;;;;7.00;6.30;;;;;;;8.58;86.83;96921.06;5014208;28;20180;-75
2020/12/16 10:21:04;;;;;;;6.93;6.30;;;;;;;8.73;86.68;96921.56;5013722;28;20183;-77
2020/12/16 10:23:31;;;;;;;6.80;5.90;;;;;;;8.75;86.33;96920.31;5013811;28;20673;-77
2020/12/16 10:25:56;;;;;;;8.40;6.37;;;;;;;8.94;86.21;96910.75;5013216;28;20813;-76
2020/12/16 10:28:22;;;;;;;7.80;6.77;;;;;;;8.88;86.89;96911.59;5014302;28;20195;-77
2020/12/16 10:30:51;;;;;;;7.67;6.97;;;;;;;8.87;88.35;96907.38;5013031;28;20617;-76
2020/12/16 10:33:17;;;;;;;7.87;7.07;;;;;;;9.00;87.71;96916.94;5014331;28;20266;-78
2020/12/16 10:35:43;;;;;;;7.80;6.97;;;;;;;8.91;88.11;96908.56;5012115;28;20550;-77
2020/12/16 10:38:10;;;;;;;8.60;7.13;;;;;;;8.96;86.74;96905.31;5013967;28;20275;-77
2020/12/16 10:40:36;;;;;;;7.90;6.90;;;;;;;8.97;87.57;96904.31;5013753;28;20223;-76
2020/12/16 10:43:02;;;;;;;7.83;6.97;;;;;;;8.95;87.67;96895.88;5013365;28;20234;-75
2020/12/16 10:45:28;;;;;;;10.63;7.30;;;;;;;8.91;87.32;96898.13;5013411;28;20237;-76
2020/12/16 10:47:58;;;;;;;10.20;7.57;;;;;;;8.84;87.45;96899.16;5013554;28;20210;-76
2020/12/16 10:50:24;;;;;;;7.97;6.90;;;;;;;8.94;87.61;96899.50;5013637;28;20201;-76
2020/12/16 10:52:50;;;;;;;8.70;7.77;;;;;;;9.11;87.30;96909.22;5012544;28;20712;-75
2020/12/16 10:55:16;;;;;;;9.13;7.83;;;;;;;9.08;87.72;96906.22;5013605;28;20183;-74
2020/12/16 10:57:41;;;;;;;9.30;7.83;;;;;;;9.12;87.68;96904.78;5012813;28;20191;-75
2020/12/16 11:00:07;;;;;;;9.43;7.60;;;;;;;9.29;86.89;96892.75;5013560;28;20339;-75
2020/12/16 11:02:33;;;;;;;8.70;7.53;;;;;;;9.13;87.48;96903.78;5003173;28;20214;-75
2020/12/16 11:04:58;;;;;;;8.90;7.30;;;;;;;9.24;87.32;96895.22;5013602;28;20766;-74
2020/12/16 11:07:24;;;;;;;9.37;7.40;;;;;;;9.39;86.67;96897.50;5003782;28;20206;-74
2020/12/16 11:09:49;;;;;;;8.40;7.53;;;;;;;9.37;86.78;96896.91;5012384;28;20241;-75
2020/12/16 11:12:15;;;;;;;9.37;7.70;;;;;;;9.32;87.09;96899.38;5013375;28;20195;-75
2020/12/16 11:14:41;;;;;;;9.83;7.77;;;;;;;9.50;86.84;96889.72;5012797;28;20644;-76
2020/12/16 11:17:08;;;;;;;9.17;8.27;;;;;;;9.28;87.88;96888.53;4997473;28;20184;-76
2020/12/16 11:19:34;;;;;;;9.37;7.57;;;;;;;9.43;87.76;96885.56;4980333;28;20187;-75
2020/12/16 11:21:59;;;;;;;10.27;7.63;;;;;;;9.57;86.81;96890.47;5012566;28;20666;-76
2020/12/16 11:24:25;;;;;;;9.77;7.83;;;;;;;9.50;86.65;96889.72;5012899;28;20235;-75
2020/12/16 11:26:52;;;;;;;9.40;7.80;;;;;;;9.56;86.89;96882.84;5019336;28;20215;-75
2020/12/16 11:29:22;;;;;;;9.33;8.30;;;;;;;9.74;85.75;96890.69;5012995;28;20179;-75
2020/12/16 11:31:57;;;;;;;11.17;8.67;;;;;;;9.75;85.31;96884.41;5012458;28;20175;-75
2020/12/16 11:34:28;;;;;;;10.70;8.57;;;;;;;9.75;84.95;96883.66;5004405;28;20176;-75
2020/12/16 11:36:57;;;;;;;9.77;8.20;;;;;;;9.74;85.05;96880.22;5011755;28;20187;-75
2020/12/16 11:39:24;;;;;;;10.00;8.40;;;;;;;9.86;85.04;96878.44;5012862;28;20712;-75
2020/12/16 11:41:52;;;;;;;10.70;7.87;;;;;;;9.96;84.85;96875.34;5012250;28;20183;-75
2020/12/16 11:44:19;;;;;;;9.77;8.73;;;;;;;10.07;83.99;96863.31;5012659;28;20214;-75
2020/12/16 11:46:46;;;;;;;9.40;8.50;;;;;;;9.90;84.71;96871.78;5010869;28;20280;-76